sensor_id;sensor_type;location;lat;lon;timestamp;temperature;humidity
23544;DHT22;11950;51.230;4.012;2024-02-21T00:01:57;11.70;99.90
23544;DHT22;11950;51.230;4.012;2024-02-21T00:04:23;11.60;99.90
23544;DHT22;11950;51.230;4.012;2024-02-21T00:06:49;11.50;99.90
23544;DHT22;11950;51.230;4.012;2024-02-21T00:09:16;11.50;99.90
23544;DHT22;11950;51.230;4.012;2024-02-21T00:11:42;11.50;99.90
23544;DHT22;11950;51.230;4.012;2024-02-21T00:14:08;11.40;99.90
23544;DHT22;11950;51.230;4.012;2024-02-21T00:16:34;11.40;99.90
23544;DHT22;11950;51.230;4.012;2024-02-21T00:19:00;11.50;99.90
23544;DHT22;11950;51.230;4.012;2024-02-21T00:21:27;11.40;99.90
23544;DHT22;11950;51.230;4.012;2024-02-21T00:23:53;11.40;99.90
23544;DHT22;11950;51.230;4.012;2024-02-21T00:26:19;11.40;99.90
23544;DHT22;11950;51.230;4.012;2024-02-21T00:28:46;11.40;99.90
23544;DHT22;11950;51.230;4.012;2024-02-21T00:31:12;11.30;99.90
23544;DHT22;11950;51.230;4.012;2024-02-21T00:33:38;11.30;99.90
23544;DHT22;11950;51.230;4.012;2024-02-21T00:36:04;11.30;99.90
23544;DHT22;11950;51.230;4.012;2024-02-21T00:38:31;11.30;99.90
23544;DHT22;11950;51.230;4.012;2024-02-21T00:40:57;11.30;99.90
23544;DHT22;11950;51.230;4.012;2024-02-21T00:43:23;11.30;99.90
23544;DHT22;11950;51.230;4.012;2024-02-21T00:45:50;11.30;99.90
23544;DHT22;11950;51.230;4.012;2024-02-21T00:48:17;11.40;99.90
23544;DHT22;11950;51.230;4.012;2024-02-21T00:50:43;11.40;99.90
23544;DHT22;11950;51.230;4.012;2024-02-21T00:53:09;11.50;99.90
23544;DHT22;11950;51.230;4.012;2024-02-21T00:55:36;11.40;99.90
23544;DHT22;11950;51.230;4.012;2024-02-21T00:58:02;11.30;99.90
23544;DHT22;11950;51.230;4.012;2024-02-21T01:00:28;11.30;99.90
23544;DHT22;11950;51.230;4.012;2024-02-21T01:02:54;11.20;99.90
23544;DHT22;11950;51.230;4.012;2024-02-21T01:05:21;11.20;99.90
23544;DHT22;11950;51.230;4.012;2024-02-21T01:07:48;11.20;99.90
23544;DHT22;11950;51.230;4.012;2024-02-21T01:10:14;11.10;99.90
23544;DHT22;11950;51.230;4.012;2024-02-21T01:12:41;11.10;99.90
23544;DHT22;11950;51.230;4.012;2024-02-21T01:15:07;11.10;99.90
23544;DHT22;11950;51.230;4.012;2024-02-21T01:17:34;11.10;99.90
23544;DHT22;11950;51.230;4.012;2024-02-21T01:20:00;11.00;99.90
23544;DHT22;11950;51.230;4.012;2024-02-21T01:22:26;11.10;99.90
23544;DHT22;11950;51.230;4.012;2024-02-21T01:24:53;11.00;99.90
23544;DHT22;11950;51.230;4.012;2024-02-21T01:27:19;11.00;99.90
23544;DHT22;11950;51.230;4.012;2024-02-21T01:29:45;11.00;99.90
23544;DHT22;11950;51.230;4.012;2024-02-21T01:32:13;11.00;99.90
23544;DHT22;11950;51.230;4.012;2024-02-21T01:34:39;11.00;99.90
23544;DHT22;11950;51.230;4.012;2024-02-21T01:37:06;11.00;99.90
23544;DHT22;11950;51.230;4.012;2024-02-21T01:39:33;11.00;99.90
23544;DHT22;11950;51.230;4.012;2024-02-21T01:42:00;11.00;99.90
23544;DHT22;11950;51.230;4.012;2024-02-21T01:44:26;11.00;99.90
23544;DHT22;11950;51.230;4.012;2024-02-21T01:46:52;11.00;99.90
23544;DHT22;11950;51.230;4.012;2024-02-21T01:49:20;11.00;99.90
23544;DHT22;11950;51.230;4.012;2024-02-21T01:51:47;11.00;99.90
23544;DHT22;11950;51.230;4.012;2024-02-21T01:54:15;11.00;99.90
23544;DHT22;11950;51.230;4.012;2024-02-21T01:56:42;11.10;99.90
23544;DHT22;11950;51.230;4.012;2024-02-21T01:59:09;11.10;99.90
23544;DHT22;11950;51.230;4.012;2024-02-21T02:01:36;11.10;99.90
23544;DHT22;11950;51.230;4.012;2024-02-21T02:04:02;11.10;99.90
23544;DHT22;11950;51.230;4.012;2024-02-21T02:06:31;11.10;99.90
23544;DHT22;11950;51.230;4.012;2024-02-21T02:08:57;11.10;99.90
23544;DHT22;11950;51.230;4.012;2024-02-21T02:11:24;11.10;99.90
23544;DHT22;11950;51.230;4.012;2024-02-21T02:13:50;11.10;99.90
23544;DHT22;11950;51.230;4.012;2024-02-21T02:16:16;11.10;99.90
23544;DHT22;11950;51.230;4.012;2024-02-21T02:18:42;11.10;99.90
23544;DHT22;11950;51.230;4.012;2024-02-21T02:21:16;11.10;99.90
23544;DHT22;11950;51.230;4.012;2024-02-21T02:23:49;11.10;99.90
23544;DHT22;11950;51.230;4.012;2024-02-21T02:26:15;11.10;99.90
23544;DHT22;11950;51.230;4.012;2024-02-21T02:28:41;11.10;99.90
23544;DHT22;11950;51.230;4.012;2024-02-21T02:31:07;11.10;99.90
23544;DHT22;11950;51.230;4.012;2024-02-21T02:33:34;11.10;99.90
23544;DHT22;11950;51.230;4.012;2024-02-21T02:36:00;11.10;99.90
23544;DHT22;11950;51.230;4.012;2024-02-21T02:38:26;11.10;99.90
23544;DHT22;11950;51.230;4.012;2024-02-21T02:40:52;11.10;99.90
23544;DHT22;11950;51.230;4.012;2024-02-21T02:43:19;11.20;99.90
23544;DHT22;11950;51.230;4.012;2024-02-21T02:45:45;11.20;99.90
23544;DHT22;11950;51.230;4.012;2024-02-21T02:48:11;11.20;99.90
23544;DHT22;11950;51.230;4.012;2024-02-21T02:50:37;11.20;99.90
23544;DHT22;11950;51.230;4.012;2024-02-21T02:53:03;11.20;99.90
23544;DHT22;11950;51.230;4.012;2024-02-21T02:55:30;11.20;99.90
23544;DHT22;11950;51.230;4.012;2024-02-21T02:57:56;11.20;99.90
23544;DHT22;11950;51.230;4.012;2024-02-21T03:00:23;11.20;99.90
23544;DHT22;11950;51.230;4.012;2024-02-21T03:02:49;11.20;99.90
23544;DHT22;11950;51.230;4.012;2024-02-21T03:05:18;11.20;99.90
23544;DHT22;11950;51.230;4.012;2024-02-21T03:07:45;11.20;99.90
23544;DHT22;11950;51.230;4.012;2024-02-21T03:10:11;11.20;99.90
23544;DHT22;11950;51.230;4.012;2024-02-21T03:12:38;11.20;99.90
23544;DHT22;11950;51.230;4.012;2024-02-21T03:15:05;11.20;99.90
23544;DHT22;11950;51.230;4.012;2024-02-21T03:17:32;11.10;99.90
23544;DHT22;11950;51.230;4.012;2024-02-21T03:20:03;11.10;99.90
23544;DHT22;11950;51.230;4.012;2024-02-21T03:22:36;11.20;99.90
23544;DHT22;11950;51.230;4.012;2024-02-21T03:25:03;11.20;99.90
23544;DHT22;11950;51.230;4.012;2024-02-21T03:27:29;11.20;99.90
23544;DHT22;11950;51.230;4.012;2024-02-21T03:29:55;11.10;99.90
23544;DHT22;11950;51.230;4.012;2024-02-21T03:32:22;11.10;99.90
23544;DHT22;11950;51.230;4.012;2024-02-21T03:34:48;11.10;99.90
23544;DHT22;11950;51.230;4.012;2024-02-21T03:37:14;11.10;99.90
23544;DHT22;11950;51.230;4.012;2024-02-21T03:39:41;11.10;99.90
23544;DHT22;11950;51.230;4.012;2024-02-21T03:42:07;11.10;99.90
23544;DHT22;11950;51.230;4.012;2024-02-21T03:44:34;11.10;99.90
23544;DHT22;11950;51.230;4.012;2024-02-21T03:47:00;11.10;99.90
23544;DHT22;11950;51.230;4.012;2024-02-21T03:49:26;11.10;99.90
23544;DHT22;11950;51.230;4.012;2024-02-21T03:51:53;11.10;99.90
23544;DHT22;11950;51.230;4.012;2024-02-21T03:54:19;11.10;99.90
23544;DHT22;11950;51.230;4.012;2024-02-21T03:56:46;11.10;99.90
23544;DHT22;11950;51.230;4.012;2024-02-21T03:59:15;11.10;99.90
23544;DHT22;11950;51.230;4.012;2024-02-21T04:01:41;11.10;99.90
23544;DHT22;11950;51.230;4.012;2024-02-21T04:04:07;11.10;99.90
23544;DHT22;11950;51.230;4.012;2024-02-21T04:06:33;11.00;99.90
23544;DHT22;11950;51.230;4.012;2024-02-21T04:09:00;11.00;99.90
23544;DHT22;11950;51.230;4.012;2024-02-21T04:11:26;11.00;99.90
23544;DHT22;11950;51.230;4.012;2024-02-21T04:13:52;11.00;99.90
23544;DHT22;11950;51.230;4.012;2024-02-21T04:16:18;11.00;99.90
23544;DHT22;11950;51.230;4.012;2024-02-21T04:18:45;11.00;99.90
23544;DHT22;11950;51.230;4.012;2024-02-21T04:21:14;11.00;99.90
23544;DHT22;11950;51.230;4.012;2024-02-21T04:23:42;11.00;99.90
23544;DHT22;11950;51.230;4.012;2024-02-21T04:26:08;11.00;99.90
23544;DHT22;11950;51.230;4.012;2024-02-21T04:28:35;11.00;99.90
23544;DHT22;11950;51.230;4.012;2024-02-21T04:31:01;11.00;99.90
23544;DHT22;11950;51.230;4.012;2024-02-21T04:33:27;11.00;99.90
23544;DHT22;11950;51.230;4.012;2024-02-21T04:35:53;11.00;99.90
23544;DHT22;11950;51.230;4.012;2024-02-21T04:38:21;11.00;99.90
23544;DHT22;11950;51.230;4.012;2024-02-21T04:40:47;10.90;99.90
23544;DHT22;11950;51.230;4.012;2024-02-21T04:43:13;11.00;99.90
23544;DHT22;11950;51.230;4.012;2024-02-21T04:45:40;10.90;99.90
23544;DHT22;11950;51.230;4.012;2024-02-21T04:48:06;11.00;99.90
23544;DHT22;11950;51.230;4.012;2024-02-21T04:50:33;11.00;99.90
23544;DHT22;11950;51.230;4.012;2024-02-21T04:52:59;11.00;99.90
23544;DHT22;11950;51.230;4.012;2024-02-21T04:55:25;11.00;99.90
23544;DHT22;11950;51.230;4.012;2024-02-21T04:57:51;11.00;99.90
23544;DHT22;11950;51.230;4.012;2024-02-21T05:00:18;11.00;99.90
23544;DHT22;11950;51.230;4.012;2024-02-21T05:02:44;11.00;99.90
23544;DHT22;11950;51.230;4.012;2024-02-21T05:05:10;11.00;99.90
23544;DHT22;11950;51.230;4.012;2024-02-21T05:07:36;10.90;99.90
23544;DHT22;11950;51.230;4.012;2024-02-21T05:10:03;10.90;99.90
23544;DHT22;11950;51.230;4.012;2024-02-21T05:12:29;10.90;99.90
23544;DHT22;11950;51.230;4.012;2024-02-21T05:14:56;10.90;99.90
23544;DHT22;11950;51.230;4.012;2024-02-21T05:17:22;10.90;99.90
23544;DHT22;11950;51.230;4.012;2024-02-21T05:19:48;10.90;99.90
23544;DHT22;11950;51.230;4.012;2024-02-21T05:22:14;10.80;99.90
23544;DHT22;11950;51.230;4.012;2024-02-21T05:24:41;10.80;99.90
23544;DHT22;11950;51.230;4.012;2024-02-21T05:27:07;10.80;99.90
23544;DHT22;11950;51.230;4.012;2024-02-21T05:29:33;10.80;99.90
23544;DHT22;11950;51.230;4.012;2024-02-21T05:32:00;10.80;99.90
23544;DHT22;11950;51.230;4.012;2024-02-21T05:34:26;10.80;99.90
23544;DHT22;11950;51.230;4.012;2024-02-21T05:36:53;10.80;99.90
23544;DHT22;11950;51.230;4.012;2024-02-21T05:39:20;10.70;99.90
23544;DHT22;11950;51.230;4.012;2024-02-21T05:41:49;10.70;99.90
23544;DHT22;11950;51.230;4.012;2024-02-21T05:44:15;10.70;99.90
23544;DHT22;11950;51.230;4.012;2024-02-21T05:46:42;10.70;99.90
23544;DHT22;11950;51.230;4.012;2024-02-21T05:49:08;10.70;99.90
23544;DHT22;11950;51.230;4.012;2024-02-21T05:51:35;10.70;99.90
23544;DHT22;11950;51.230;4.012;2024-02-21T05:54:01;10.70;99.90
23544;DHT22;11950;51.230;4.012;2024-02-21T05:56:27;10.70;99.90
23544;DHT22;11950;51.230;4.012;2024-02-21T05:58:54;10.70;99.90
23544;DHT22;11950;51.230;4.012;2024-02-21T06:01:20;10.70;99.90
23544;DHT22;11950;51.230;4.012;2024-02-21T06:03:50;10.70;99.90
23544;DHT22;11950;51.230;4.012;2024-02-21T06:06:16;10.60;99.90
23544;DHT22;11950;51.230;4.012;2024-02-21T06:08:42;10.60;99.90
23544;DHT22;11950;51.230;4.012;2024-02-21T06:11:09;10.60;99.90
23544;DHT22;11950;51.230;4.012;2024-02-21T06:13:38;10.60;99.90
23544;DHT22;11950;51.230;4.012;2024-02-21T06:16:06;10.60;99.90
23544;DHT22;11950;51.230;4.012;2024-02-21T06:18:33;10.60;99.90
23544;DHT22;11950;51.230;4.012;2024-02-21T06:21:00;10.60;99.90
23544;DHT22;11950;51.230;4.012;2024-02-21T06:23:26;10.60;99.90
23544;DHT22;11950;51.230;4.012;2024-02-21T06:25:52;10.60;99.90
23544;DHT22;11950;51.230;4.012;2024-02-21T06:28:19;10.60;99.90
23544;DHT22;11950;51.230;4.012;2024-02-21T06:30:46;10.60;99.90
23544;DHT22;11950;51.230;4.012;2024-02-21T06:33:12;10.60;99.90
23544;DHT22;11950;51.230;4.012;2024-02-21T06:35:39;10.70;99.90
23544;DHT22;11950;51.230;4.012;2024-02-21T06:38:07;10.70;99.90
23544;DHT22;11950;51.230;4.012;2024-02-21T06:40:33;10.70;99.90
23544;DHT22;11950;51.230;4.012;2024-02-21T06:43:04;10.70;99.90
23544;DHT22;11950;51.230;4.012;2024-02-21T06:45:31;10.70;99.90
23544;DHT22;11950;51.230;4.012;2024-02-21T06:47:57;10.60;99.90
23544;DHT22;11950;51.230;4.012;2024-02-21T06:50:24;10.70;99.90
23544;DHT22;11950;51.230;4.012;2024-02-21T06:52:50;10.70;99.90
23544;DHT22;11950;51.230;4.012;2024-02-21T06:55:16;10.70;99.90
23544;DHT22;11950;51.230;4.012;2024-02-21T06:57:43;10.70;99.90
23544;DHT22;11950;51.230;4.012;2024-02-21T07:00:09;10.70;99.90
23544;DHT22;11950;51.230;4.012;2024-02-21T07:02:36;10.70;99.90
23544;DHT22;11950;51.230;4.012;2024-02-21T07:05:02;10.70;99.90
23544;DHT22;11950;51.230;4.012;2024-02-21T07:07:28;10.80;99.90
23544;DHT22;11950;51.230;4.012;2024-02-21T07:09:55;10.80;99.90
23544;DHT22;11950;51.230;4.012;2024-02-21T07:12:22;10.80;99.90
23544;DHT22;11950;51.230;4.012;2024-02-21T07:14:48;10.80;99.90
23544;DHT22;11950;51.230;4.012;2024-02-21T07:17:14;10.80;99.90
23544;DHT22;11950;51.230;4.012;2024-02-21T07:19:40;10.80;99.90
23544;DHT22;11950;51.230;4.012;2024-02-21T07:22:07;10.80;99.90
23544;DHT22;11950;51.230;4.012;2024-02-21T07:24:33;10.90;99.90
23544;DHT22;11950;51.230;4.012;2024-02-21T07:26:59;10.90;99.90
23544;DHT22;11950;51.230;4.012;2024-02-21T07:29:30;10.90;99.90
23544;DHT22;11950;51.230;4.012;2024-02-21T07:31:56;10.90;99.90
23544;DHT22;11950;51.230;4.012;2024-02-21T07:34:23;10.90;99.90
23544;DHT22;11950;51.230;4.012;2024-02-21T07:36:49;10.90;99.90
23544;DHT22;11950;51.230;4.012;2024-02-21T07:39:15;10.90;99.90
23544;DHT22;11950;51.230;4.012;2024-02-21T07:41:42;10.90;99.90
23544;DHT22;11950;51.230;4.012;2024-02-21T07:44:11;10.90;99.90
23544;DHT22;11950;51.230;4.012;2024-02-21T07:46:37;11.00;99.90
23544;DHT22;11950;51.230;4.012;2024-02-21T07:49:03;11.00;99.90
23544;DHT22;11950;51.230;4.012;2024-02-21T07:51:29;11.00;99.90
23544;DHT22;11950;51.230;4.012;2024-02-21T07:53:56;11.00;99.90
23544;DHT22;11950;51.230;4.012;2024-02-21T07:56:22;11.00;99.90
23544;DHT22;11950;51.230;4.012;2024-02-21T07:58:48;11.00;99.90
23544;DHT22;11950;51.230;4.012;2024-02-21T08:01:20;11.00;99.90
23544;DHT22;11950;51.230;4.012;2024-02-21T08:03:47;11.10;99.90
23544;DHT22;11950;51.230;4.012;2024-02-21T08:06:13;11.10;99.90
23544;DHT22;11950;51.230;4.012;2024-02-21T08:08:40;11.10;99.90
23544;DHT22;11950;51.230;4.012;2024-02-21T08:11:06;11.10;99.90
23544;DHT22;11950;51.230;4.012;2024-02-21T08:13:33;11.00;99.90
23544;DHT22;11950;51.230;4.012;2024-02-21T08:15:59;11.10;99.90
23544;DHT22;11950;51.230;4.012;2024-02-21T08:18:25;11.10;99.90
23544;DHT22;11950;51.230;4.012;2024-02-21T08:20:51;11.10;99.90
23544;DHT22;11950;51.230;4.012;2024-02-21T08:23:18;11.10;99.90
23544;DHT22;11950;51.230;4.012;2024-02-21T08:25:45;11.20;99.90
23544;DHT22;11950;51.230;4.012;2024-02-21T08:28:11;11.20;99.90
23544;DHT22;11950;51.230;4.012;2024-02-21T08:30:38;11.20;99.90
23544;DHT22;11950;51.230;4.012;2024-02-21T08:33:05;11.20;99.90
23544;DHT22;11950;51.230;4.012;2024-02-21T08:35:31;11.20;99.90
23544;DHT22;11950;51.230;4.012;2024-02-21T08:37:57;11.30;99.90
23544;DHT22;11950;51.230;4.012;2024-02-21T08:40:24;11.30;99.90
23544;DHT22;11950;51.230;4.012;2024-02-21T08:42:50;11.40;99.90
23544;DHT22;11950;51.230;4.012;2024-02-21T08:45:16;11.30;99.90
23544;DHT22;11950;51.230;4.012;2024-02-21T08:47:43;11.30;99.90
23544;DHT22;11950;51.230;4.012;2024-02-21T08:50:09;11.30;99.90
23544;DHT22;11950;51.230;4.012;2024-02-21T08:52:36;11.40;99.90
23544;DHT22;11950;51.230;4.012;2024-02-21T08:55:02;11.40;99.90
23544;DHT22;11950;51.230;4.012;2024-02-21T08:57:29;11.40;99.90
23544;DHT22;11950;51.230;4.012;2024-02-21T08:59:55;11.40;99.90
23544;DHT22;11950;51.230;4.012;2024-02-21T09:02:21;11.40;99.90
23544;DHT22;11950;51.230;4.012;2024-02-21T09:04:47;11.50;99.90
23544;DHT22;11950;51.230;4.012;2024-02-21T09:07:14;11.50;99.90
23544;DHT22;11950;51.230;4.012;2024-02-21T09:09:40;11.50;99.90
23544;DHT22;11950;51.230;4.012;2024-02-21T09:12:07;11.40;99.90
23544;DHT22;11950;51.230;4.012;2024-02-21T09:14:33;11.50;99.90
23544;DHT22;11950;51.230;4.012;2024-02-21T09:17:00;11.50;99.90
23544;DHT22;11950;51.230;4.012;2024-02-21T09:19:26;11.50;99.90
23544;DHT22;11950;51.230;4.012;2024-02-21T09:21:52;11.50;99.90
23544;DHT22;11950;51.230;4.012;2024-02-21T09:24:18;11.50;99.90
23544;DHT22;11950;51.230;4.012;2024-02-21T09:26:45;11.50;99.90
23544;DHT22;11950;51.230;4.012;2024-02-21T09:29:12;11.50;99.90
23544;DHT22;11950;51.230;4.012;2024-02-21T09:31:38;11.50;99.90
23544;DHT22;11950;51.230;4.012;2024-02-21T09:34:05;11.50;99.90
23544;DHT22;11950;51.230;4.012;2024-02-21T09:36:31;11.40;99.90
23544;DHT22;11950;51.230;4.012;2024-02-21T09:38:57;11.50;99.90
23544;DHT22;11950;51.230;4.012;2024-02-21T09:41:26;11.50;99.90
23544;DHT22;11950;51.230;4.012;2024-02-21T09:43:56;11.60;99.90
23544;DHT22;11950;51.230;4.012;2024-02-21T09:46:42;11.60;99.90
23544;DHT22;11950;51.230;4.012;2024-02-21T09:49:31;11.70;99.90
23544;DHT22;11950;51.230;4.012;2024-02-21T09:52:03;11.80;99.90
23544;DHT22;11950;51.230;4.012;2024-02-21T09:54:30;11.80;99.90
23544;DHT22;11950;51.230;4.012;2024-02-21T09:57:03;11.80;99.90
23544;DHT22;11950;51.230;4.012;2024-02-21T09:59:32;11.90;99.90
23544;DHT22;11950;51.230;4.012;2024-02-21T10:01:59;11.90;99.90
23544;DHT22;11950;51.230;4.012;2024-02-21T10:04:29;11.90;99.90
23544;DHT22;11950;51.230;4.012;2024-02-21T10:06:56;11.90;99.90
23544;DHT22;11950;51.230;4.012;2024-02-21T10:09:26;12.00;99.90
23544;DHT22;11950;51.230;4.012;2024-02-21T10:11:54;11.90;99.90
23544;DHT22;11950;51.230;4.012;2024-02-21T10:14:21;11.90;99.90
23544;DHT22;11950;51.230;4.012;2024-02-21T10:16:48;12.00;99.90
23544;DHT22;11950;51.230;4.012;2024-02-21T10:19:19;12.00;99.90
23544;DHT22;11950;51.230;4.012;2024-02-21T10:22:18;12.00;99.90
23544;DHT22;11950;51.230;4.012;2024-02-21T10:24:44;12.10;99.90
23544;DHT22;11950;51.230;4.012;2024-02-21T10:27:10;12.10;99.90
23544;DHT22;11950;51.230;4.012;2024-02-21T10:29:38;12.10;99.90
23544;DHT22;11950;51.230;4.012;2024-02-21T10:32:09;12.10;99.90
23544;DHT22;11950;51.230;4.012;2024-02-21T10:34:37;12.10;99.90
23544;DHT22;11950;51.230;4.012;2024-02-21T10:37:08;12.10;99.90
23544;DHT22;11950;51.230;4.012;2024-02-21T10:39:40;12.20;99.90
23544;DHT22;11950;51.230;4.012;2024-02-21T10:42:07;12.20;99.90
23544;DHT22;11950;51.230;4.012;2024-02-21T10:44:39;12.10;99.90
23544;DHT22;11950;51.230;4.012;2024-02-21T10:47:10;12.10;99.90
23544;DHT22;11950;51.230;4.012;2024-02-21T10:49:40;12.10;99.90
23544;DHT22;11950;51.230;4.012;2024-02-21T10:55:03;12.10;99.90
23544;DHT22;11950;51.230;4.012;2024-02-21T10:57:31;12.10;99.90
23544;DHT22;11950;51.230;4.012;2024-02-21T10:59:59;12.10;99.90
23544;DHT22;11950;51.230;4.012;2024-02-21T11:02:26;12.10;99.90
23544;DHT22;11950;51.230;4.012;2024-02-21T11:04:54;12.10;99.90
23544;DHT22;11950;51.230;4.012;2024-02-21T11:07:21;12.10;99.90
23544;DHT22;11950;51.230;4.012;2024-02-21T11:09:51;12.20;99.90
23544;DHT22;11950;51.230;4.012;2024-02-21T11:12:22;12.20;99.90
23544;DHT22;11950;51.230;4.012;2024-02-21T11:14:49;12.20;99.90
23544;DHT22;11950;51.230;4.012;2024-02-21T11:17:17;12.20;99.90
23544;DHT22;11950;51.230;4.012;2024-02-21T11:19:43;12.20;99.90
23544;DHT22;11950;51.230;4.012;2024-02-21T11:22:17;12.20;99.90
23544;DHT22;11950;51.230;4.012;2024-02-21T11:24:44;12.20;99.90
23544;DHT22;11950;51.230;4.012;2024-02-21T11:27:15;12.30;99.90
23544;DHT22;11950;51.230;4.012;2024-02-21T11:29:49;12.30;99.90
23544;DHT22;11950;51.230;4.012;2024-02-21T11:32:18;12.30;99.90
23544;DHT22;11950;51.230;4.012;2024-02-21T11:37:25;12.40;99.90
23544;DHT22;11950;51.230;4.012;2024-02-21T11:39:54;12.40;99.90
23544;DHT22;11950;51.230;4.012;2024-02-21T11:42:20;12.30;99.90
23544;DHT22;11950;51.230;4.012;2024-02-21T11:44:46;12.30;99.90
23544;DHT22;11950;51.230;4.012;2024-02-21T11:47:14;12.30;99.90
23544;DHT22;11950;51.230;4.012;2024-02-21T11:49:48;12.30;99.90
23544;DHT22;11950;51.230;4.012;2024-02-21T11:52:24;12.40;99.90
23544;DHT22;11950;51.230;4.012;2024-02-21T11:54:54;12.50;99.90
23544;DHT22;11950;51.230;4.012;2024-02-21T11:57:23;12.60;99.90
23544;DHT22;11950;51.230;4.012;2024-02-21T11:59:51;12.70;99.90
23544;DHT22;11950;51.230;4.012;2024-02-21T12:02:18;12.80;99.90
23544;DHT22;11950;51.230;4.012;2024-02-21T12:04:44;12.90;99.90
23544;DHT22;11950;51.230;4.012;2024-02-21T12:07:11;13.00;99.90
23544;DHT22;11950;51.230;4.012;2024-02-21T12:09:37;13.00;99.90
23544;DHT22;11950;51.230;4.012;2024-02-21T12:12:05;12.90;99.90
23544;DHT22;11950;51.230;4.012;2024-02-21T12:14:33;12.90;99.90
23544;DHT22;11950;51.230;4.012;2024-02-21T12:17:00;12.90;99.90
23544;DHT22;11950;51.230;4.012;2024-02-21T12:19:31;12.90;99.90
23544;DHT22;11950;51.230;4.012;2024-02-21T12:22:01;12.90;99.90
23544;DHT22;11950;51.230;4.012;2024-02-21T12:24:28;13.00;99.90
23544;DHT22;11950;51.230;4.012;2024-02-21T12:26:56;12.90;99.90
23544;DHT22;11950;51.230;4.012;2024-02-21T12:29:26;12.90;99.90
23544;DHT22;11950;51.230;4.012;2024-02-21T12:31:52;12.80;99.90
23544;DHT22;11950;51.230;4.012;2024-02-21T12:34:20;12.80;99.90
23544;DHT22;11950;51.230;4.012;2024-02-21T12:36:46;12.70;99.90
23544;DHT22;11950;51.230;4.012;2024-02-21T12:39:13;12.70;99.90
23544;DHT22;11950;51.230;4.012;2024-02-21T12:41:40;12.70;99.90
23544;DHT22;11950;51.230;4.012;2024-02-21T12:44:11;12.70;99.90
23544;DHT22;11950;51.230;4.012;2024-02-21T12:46:38;12.60;99.90
23544;DHT22;11950;51.230;4.012;2024-02-21T12:49:05;12.70;99.90
23544;DHT22;11950;51.230;4.012;2024-02-21T12:51:34;12.70;99.90
23544;DHT22;11950;51.230;4.012;2024-02-21T12:54:01;12.70;99.90
23544;DHT22;11950;51.230;4.012;2024-02-21T12:56:29;12.70;99.90
23544;DHT22;11950;51.230;4.012;2024-02-21T12:58:57;12.70;99.90
23544;DHT22;11950;51.230;4.012;2024-02-21T13:01:24;12.70;99.90
23544;DHT22;11950;51.230;4.012;2024-02-21T13:03:50;12.70;99.90
23544;DHT22;11950;51.230;4.012;2024-02-21T13:06:16;12.60;99.90
23544;DHT22;11950;51.230;4.012;2024-02-21T13:08:43;12.60;99.90
23544;DHT22;11950;51.230;4.012;2024-02-21T13:11:12;12.60;99.90
23544;DHT22;11950;51.230;4.012;2024-02-21T13:13:38;12.60;99.90
23544;DHT22;11950;51.230;4.012;2024-02-21T13:16:05;12.60;99.90
23544;DHT22;11950;51.230;4.012;2024-02-21T13:18:31;12.60;99.90
23544;DHT22;11950;51.230;4.012;2024-02-21T13:20:58;12.70;99.90
23544;DHT22;11950;51.230;4.012;2024-02-21T13:23:24;12.70;99.90
23544;DHT22;11950;51.230;4.012;2024-02-21T13:25:51;12.70;99.90
23544;DHT22;11950;51.230;4.012;2024-02-21T13:28:17;12.70;99.90
23544;DHT22;11950;51.230;4.012;2024-02-21T13:30:43;12.70;99.90
23544;DHT22;11950;51.230;4.012;2024-02-21T13:33:10;12.70;99.90
23544;DHT22;11950;51.230;4.012;2024-02-21T13:35:36;12.70;99.90
23544;DHT22;11950;51.230;4.012;2024-02-21T13:38:03;12.70;99.90
23544;DHT22;11950;51.230;4.012;2024-02-21T13:40:29;12.70;99.90
23544;DHT22;11950;51.230;4.012;2024-02-21T13:42:56;12.70;99.90
23544;DHT22;11950;51.230;4.012;2024-02-21T13:45:22;12.70;99.90
23544;DHT22;11950;51.230;4.012;2024-02-21T13:47:49;12.60;99.90
23544;DHT22;11950;51.230;4.012;2024-02-21T13:50:15;12.60;99.90
23544;DHT22;11950;51.230;4.012;2024-02-21T13:52:41;12.60;99.90
23544;DHT22;11950;51.230;4.012;2024-02-21T13:55:08;12.60;99.90
23544;DHT22;11950;51.230;4.012;2024-02-21T13:57:37;12.50;99.90
23544;DHT22;11950;51.230;4.012;2024-02-21T14:00:04;12.50;99.90
23544;DHT22;11950;51.230;4.012;2024-02-21T14:02:38;12.50;99.90
23544;DHT22;11950;51.230;4.012;2024-02-21T14:05:05;12.50;99.90
23544;DHT22;11950;51.230;4.012;2024-02-21T14:07:32;12.40;99.90
23544;DHT22;11950;51.230;4.012;2024-02-21T14:10:02;12.50;99.90
23544;DHT22;11950;51.230;4.012;2024-02-21T14:12:29;12.40;99.90
23544;DHT22;11950;51.230;4.012;2024-02-21T14:14:56;12.40;99.90
23544;DHT22;11950;51.230;4.012;2024-02-21T14:17:24;12.30;99.90
23544;DHT22;11950;51.230;4.012;2024-02-21T14:19:51;12.30;99.90
23544;DHT22;11950;51.230;4.012;2024-02-21T14:22:18;12.20;99.90
23544;DHT22;11950;51.230;4.012;2024-02-21T14:24:45;12.20;99.90
23544;DHT22;11950;51.230;4.012;2024-02-21T14:27:11;12.20;99.90
23544;DHT22;11950;51.230;4.012;2024-02-21T14:29:38;12.20;99.90
23544;DHT22;11950;51.230;4.012;2024-02-21T14:32:05;12.20;99.90
23544;DHT22;11950;51.230;4.012;2024-02-21T14:34:31;12.10;99.90
23544;DHT22;11950;51.230;4.012;2024-02-21T14:36:58;12.10;99.90
23544;DHT22;11950;51.230;4.012;2024-02-21T14:39:24;12.20;99.90
23544;DHT22;11950;51.230;4.012;2024-02-21T14:41:50;12.10;99.90
23544;DHT22;11950;51.230;4.012;2024-02-21T14:44:16;12.10;99.90
23544;DHT22;11950;51.230;4.012;2024-02-21T14:46:43;12.10;99.90
23544;DHT22;11950;51.230;4.012;2024-02-21T14:49:10;12.10;99.90
23544;DHT22;11950;51.230;4.012;2024-02-21T14:51:37;12.10;99.90
23544;DHT22;11950;51.230;4.012;2024-02-21T14:54:03;12.10;99.90
23544;DHT22;11950;51.230;4.012;2024-02-21T14:56:30;12.10;99.90
23544;DHT22;11950;51.230;4.012;2024-02-21T14:58:57;12.00;99.90
23544;DHT22;11950;51.230;4.012;2024-02-21T15:01:24;12.00;99.90
23544;DHT22;11950;51.230;4.012;2024-02-21T15:03:50;12.00;99.90
23544;DHT22;11950;51.230;4.012;2024-02-21T15:06:17;12.00;99.90
23544;DHT22;11950;51.230;4.012;2024-02-21T15:08:43;12.00;99.90
23544;DHT22;11950;51.230;4.012;2024-02-21T15:11:10;12.00;99.90
23544;DHT22;11950;51.230;4.012;2024-02-21T15:13:36;12.00;99.90
23544;DHT22;11950;51.230;4.012;2024-02-21T15:16:03;12.00;99.90
23544;DHT22;11950;51.230;4.012;2024-02-21T15:18:31;11.90;99.90
23544;DHT22;11950;51.230;4.012;2024-02-21T15:20:59;11.90;99.90
23544;DHT22;11950;51.230;4.012;2024-02-21T15:23:27;11.90;99.90
23544;DHT22;11950;51.230;4.012;2024-02-21T15:25:53;11.80;99.90
23544;DHT22;11950;51.230;4.012;2024-02-21T15:28:20;11.80;99.90
23544;DHT22;11950;51.230;4.012;2024-02-21T15:30:46;11.80;99.90
23544;DHT22;11950;51.230;4.012;2024-02-21T15:33:12;11.80;99.90
23544;DHT22;11950;51.230;4.012;2024-02-21T15:35:38;11.90;99.90